PN72 weather

Rocky Hollow Field
Strongstown, Pennsylvania, United States

Public forecast

Using degrees Fahrenheit for public forecast. Weather courtesy of forecast.io.

METAR (pilot weather report)

Closest report is Indiana County/Jimmy Stewart Fld/ Airport, 10.8 nm (20.1 km) WNW. Retrieved 2019/05/22 10:35 UTC (7 minutes ago):

KIDI 221035Z AUTO 11005KT 10SM CLR 11/03 A3023 RMK A01

TAF (pilot weather forecast)

Closest forecast is John Murtha Johnstown Cambria County Airport, 15.4 nm (28.4 km) S. Retrieved 2019/05/22 06:54 UTC (4 hours ago):

TAF KJST 220553Z 2206/2306 10004KT P6SM SCT250 FM221300 13010KT P6SM OVC250 FM221500 15011G17KT P6SM SCT060 OVC250 FM222200 16009KT P6SM SCT050 BKN150